Terminal Aerodrome Forecast
Issued by NWS Albany, NY

Home | Current Version | Previous Version | Text Only | Print | Product List | Glossary On
Versions: 1 2 3 4 5 6 7 8 9 10 11 12 13 14 15 16 17 18
530
FTUS41 KALY 271720
TAFGFL
TAF
KGFL 271720Z 2718/2818 14004KT P6SM FEW050
     FM272300 VRB03KT P6SM SKC
     FM280700 00000KT P6SM SCT120 BKN250
     FM281500 17003KT P6SM SCT090 BKN200=

USA.gov is the U.S. government's official web portal to all federal, state and local government web resources and services.